sensor_id;sensor_type;location;lat;lon;timestamp;pressure;altitude;pressure_sealevel;temperature;humidity
40570;BME280;26270;34.428;-119.710;2023-02-02T00:01:22;101767.00;;;18.05;37.36
40570;BME280;26270;34.428;-119.710;2023-02-02T00:03:51;101767.34;;;18.00;37.02
40570;BME280;26270;34.428;-119.710;2023-02-02T00:06:20;101766.95;;;18.25;36.15
40570;BME280;26270;34.428;-119.710;2023-02-02T00:08:49;101765.58;;;18.00;36.07
40570;BME280;26270;34.428;-119.710;2023-02-02T00:11:18;101765.14;;;18.16;37.13
40570;BME280;26270;34.428;-119.710;2023-02-02T00:13:47;101762.79;;;18.10;37.73
40570;BME280;26270;34.428;-119.710;2023-02-02T00:16:49;101761.83;;;18.38;37.70
40570;BME280;26270;34.428;-119.710;2023-02-02T00:19:20;101762.99;;;17.94;39.54
40570;BME280;26270;34.428;-119.710;2023-02-02T00:21:48;101762.82;;;18.16;40.15
40570;BME280;26270;34.428;-119.710;2023-02-02T00:24:17;101765.01;;;18.03;39.96
40570;BME280;26270;34.428;-119.710;2023-02-02T00:26:47;101768.84;;;18.07;40.47
40570;BME280;26270;34.428;-119.710;2023-02-02T00:29:17;101771.49;;;18.05;40.55
40570;BME280;26270;34.428;-119.710;2023-02-02T00:31:45;101772.06;;;18.18;41.09
40570;BME280;26270;34.428;-119.710;2023-02-02T00:34:15;101772.06;;;18.07;40.80
40570;BME280;26270;34.428;-119.710;2023-02-02T00:36:44;101774.27;;;18.05;40.47
40570;BME280;26270;34.428;-119.710;2023-02-02T00:39:17;101778.65;;;18.13;40.39
40570;BME280;26270;34.428;-119.710;2023-02-02T00:41:46;101781.74;;;18.19;40.01
40570;BME280;26270;34.428;-119.710;2023-02-02T00:44:14;101784.16;;;18.02;40.73
40570;BME280;26270;34.428;-119.710;2023-02-02T00:46:42;101784.08;;;17.91;41.24
40570;BME280;26270;34.428;-119.710;2023-02-02T00:49:11;101784.15;;;17.86;41.19
40570;BME280;26270;34.428;-119.710;2023-02-02T00:51:39;101782.44;;;17.84;41.74
40570;BME280;26270;34.428;-119.710;2023-02-02T00:54:08;101780.61;;;17.74;42.58
40570;BME280;26270;34.428;-119.710;2023-02-02T00:56:36;101775.77;;;17.55;43.54
40570;BME280;26270;34.428;-119.710;2023-02-02T00:59:04;101778.43;;;17.29;44.23
40570;BME280;26270;34.428;-119.710;2023-02-02T01:01:33;101783.17;;;17.42;43.42
40570;BME280;26270;34.428;-119.710;2023-02-02T01:04:01;101787.06;;;17.14;44.29
40570;BME280;26270;34.428;-119.710;2023-02-02T01:06:29;101786.41;;;17.10;44.92
40570;BME280;26270;34.428;-119.710;2023-02-02T01:08:58;101788.16;;;17.03;45.45
40570;BME280;26270;34.428;-119.710;2023-02-02T01:11:26;101790.06;;;17.05;45.05
40570;BME280;26270;34.428;-119.710;2023-02-02T01:13:54;101791.88;;;16.88;45.28
40570;BME280;26270;34.428;-119.710;2023-02-02T01:16:23;101792.30;;;16.74;45.19
40570;BME280;26270;34.428;-119.710;2023-02-02T01:18:52;101790.37;;;16.63;45.59
40570;BME280;26270;34.428;-119.710;2023-02-02T01:21:20;101789.13;;;16.57;45.89
40570;BME280;26270;34.428;-119.710;2023-02-02T01:23:48;101794.73;;;16.47;45.66
40570;BME280;26270;34.428;-119.710;2023-02-02T01:26:16;101804.29;;;16.55;45.73
40570;BME280;26270;34.428;-119.710;2023-02-02T01:28:45;101807.21;;;16.42;45.34
40570;BME280;26270;34.428;-119.710;2023-02-02T01:31:15;101811.16;;;16.46;45.54
40570;BME280;26270;34.428;-119.710;2023-02-02T01:33:45;101820.90;;;15.95;46.09
40570;BME280;26270;34.428;-119.710;2023-02-02T01:36:15;101822.38;;;16.23;46.42
40570;BME280;26270;34.428;-119.710;2023-02-02T01:38:44;101829.27;;;15.98;47.30
40570;BME280;26270;34.428;-119.710;2023-02-02T01:41:14;101831.78;;;16.06;48.69
40570;BME280;26270;34.428;-119.710;2023-02-02T01:43:54;101831.26;;;15.89;50.66
40570;BME280;26270;34.428;-119.710;2023-02-02T01:46:24;101835.35;;;15.83;53.21
40570;BME280;26270;34.428;-119.710;2023-02-02T01:48:58;101838.01;;;15.73;53.00
40570;BME280;26270;34.428;-119.710;2023-02-02T01:51:40;101843.17;;;15.66;54.06
40570;BME280;26270;34.428;-119.710;2023-02-02T01:54:12;101847.33;;;15.51;55.28
40570;BME280;26270;34.428;-119.710;2023-02-02T01:56:45;101848.86;;;15.38;55.94
40570;BME280;26270;34.428;-119.710;2023-02-02T01:59:15;101845.70;;;15.33;56.77
40570;BME280;26270;34.428;-119.710;2023-02-02T02:01:46;101842.11;;;15.35;57.88
40570;BME280;26270;34.428;-119.710;2023-02-02T02:04:15;101845.61;;;15.13;57.90
40570;BME280;26270;34.428;-119.710;2023-02-02T02:06:44;101845.38;;;15.24;58.01
40570;BME280;26270;34.428;-119.710;2023-02-02T02:09:12;101849.52;;;15.22;58.64
40570;BME280;26270;34.428;-119.710;2023-02-02T02:11:40;101849.14;;;14.91;59.87
40570;BME280;26270;34.428;-119.710;2023-02-02T02:14:10;101854.85;;;14.78;59.95
40570;BME280;26270;34.428;-119.710;2023-02-02T02:16:51;101853.38;;;14.78;59.96
40570;BME280;26270;34.428;-119.710;2023-02-02T02:19:45;101855.67;;;14.96;59.84
40570;BME280;26270;34.428;-119.710;2023-02-02T02:22:18;101859.35;;;14.86;61.09
40570;BME280;26270;34.428;-119.710;2023-02-02T02:25:11;101861.58;;;14.66;60.80
40570;BME280;26270;34.428;-119.710;2023-02-02T02:28:02;101872.62;;;14.28;62.71
40570;BME280;26270;34.428;-119.710;2023-02-02T02:30:48;101877.59;;;14.50;61.57
40570;BME280;26270;34.428;-119.710;2023-02-02T02:33:24;101876.11;;;14.63;61.18
40570;BME280;26270;34.428;-119.710;2023-02-02T02:35:59;101879.48;;;14.45;61.78
40570;BME280;26270;34.428;-119.710;2023-02-02T02:38:36;101883.73;;;14.44;61.42
40570;BME280;26270;34.428;-119.710;2023-02-02T02:41:09;101887.67;;;14.37;61.47
40570;BME280;26270;34.428;-119.710;2023-02-02T02:43:42;101887.97;;;14.19;61.89
40570;BME280;26270;34.428;-119.710;2023-02-02T02:46:14;101887.07;;;14.14;62.29
40570;BME280;26270;34.428;-119.710;2023-02-02T02:48:43;101886.51;;;13.96;62.70
40570;BME280;26270;34.428;-119.710;2023-02-02T02:51:41;101891.47;;;14.01;62.69
40570;BME280;26270;34.428;-119.710;2023-02-02T02:54:10;101893.77;;;14.04;62.88
40570;BME280;26270;34.428;-119.710;2023-02-02T02:56:49;101896.02;;;13.86;62.95
40570;BME280;26270;34.428;-119.710;2023-02-02T02:59:29;101894.64;;;13.83;62.01
40570;BME280;26270;34.428;-119.710;2023-02-02T03:02:09;101893.92;;;13.89;62.10
40570;BME280;26270;34.428;-119.710;2023-02-02T03:04:46;101895.33;;;13.72;62.50
40570;BME280;26270;34.428;-119.710;2023-02-02T03:07:22;101896.92;;;13.74;61.98
40570;BME280;26270;34.428;-119.710;2023-02-02T03:09:54;101892.49;;;13.78;61.47
40570;BME280;26270;34.428;-119.710;2023-02-02T03:12:25;101890.81;;;13.84;61.68
40570;BME280;26270;34.428;-119.710;2023-02-02T03:14:54;101890.58;;;13.89;61.69
40570;BME280;26270;34.428;-119.710;2023-02-02T03:17:22;101896.07;;;13.75;61.86
40570;BME280;26270;34.428;-119.710;2023-02-02T03:19:51;101899.99;;;13.61;61.73
40570;BME280;26270;34.428;-119.710;2023-02-02T03:22:19;101899.99;;;13.57;62.09
40570;BME280;26270;34.428;-119.710;2023-02-02T03:24:49;101902.32;;;13.11;63.48
40570;BME280;26270;34.428;-119.710;2023-02-02T03:27:17;101906.62;;;13.19;63.37
40570;BME280;26270;34.428;-119.710;2023-02-02T03:29:46;101905.79;;;13.18;62.85
40570;BME280;26270;34.428;-119.710;2023-02-02T03:32:14;101913.61;;;13.32;62.57
40570;BME280;26270;34.428;-119.710;2023-02-02T03:34:42;101918.09;;;13.24;62.53
40570;BME280;26270;34.428;-119.710;2023-02-02T03:37:10;101919.74;;;13.34;62.12
40570;BME280;26270;34.428;-119.710;2023-02-02T03:39:38;101917.21;;;13.26;62.71
40570;BME280;26270;34.428;-119.710;2023-02-02T03:42:06;101918.60;;;13.29;62.01
40570;BME280;26270;34.428;-119.710;2023-02-02T03:44:34;101918.51;;;13.26;62.08
40570;BME280;26270;34.428;-119.710;2023-02-02T03:47:02;101921.53;;;13.17;62.41
40570;BME280;26270;34.428;-119.710;2023-02-02T03:49:30;101923.81;;;13.22;61.60
40570;BME280;26270;34.428;-119.710;2023-02-02T03:51:58;101921.97;;;13.21;62.20
40570;BME280;26270;34.428;-119.710;2023-02-02T03:54:25;101926.69;;;12.85;63.19
40570;BME280;26270;34.428;-119.710;2023-02-02T03:56:53;101924.80;;;12.53;63.49
40570;BME280;26270;34.428;-119.710;2023-02-02T03:59:21;101927.38;;;12.60;64.16
40570;BME280;26270;34.428;-119.710;2023-02-02T04:01:50;101929.37;;;12.53;63.68
40570;BME280;26270;34.428;-119.710;2023-02-02T04:04:18;101926.17;;;12.72;63.25
40570;BME280;26270;34.428;-119.710;2023-02-02T04:06:46;101933.53;;;12.82;63.02
40570;BME280;26270;34.428;-119.710;2023-02-02T04:09:13;101938.90;;;12.80;62.57
40570;BME280;26270;34.428;-119.710;2023-02-02T04:11:41;101940.31;;;12.84;62.88
40570;BME280;26270;34.428;-119.710;2023-02-02T04:14:10;101942.73;;;12.49;63.86
40570;BME280;26270;34.428;-119.710;2023-02-02T04:16:39;101945.66;;;12.60;63.40
40570;BME280;26270;34.428;-119.710;2023-02-02T04:19:07;101947.61;;;12.46;64.07
40570;BME280;26270;34.428;-119.710;2023-02-02T04:21:35;101948.07;;;12.54;63.87
40570;BME280;26270;34.428;-119.710;2023-02-02T04:24:03;101946.08;;;12.55;64.01
40570;BME280;26270;34.428;-119.710;2023-02-02T04:26:32;101945.06;;;12.41;64.46
40570;BME280;26270;34.428;-119.710;2023-02-02T04:29:00;101948.23;;;12.55;64.12
40570;BME280;26270;34.428;-119.710;2023-02-02T04:31:28;101950.46;;;12.52;63.98
40570;BME280;26270;34.428;-119.710;2023-02-02T04:33:56;101947.58;;;12.32;64.95
40570;BME280;26270;34.428;-119.710;2023-02-02T04:36:24;101950.82;;;12.27;65.32
40570;BME280;26270;34.428;-119.710;2023-02-02T04:38:53;101954.73;;;12.29;65.37
40570;BME280;26270;34.428;-119.710;2023-02-02T04:41:22;101957.56;;;12.08;65.56
40570;BME280;26270;34.428;-119.710;2023-02-02T04:43:51;101962.17;;;12.41;65.26
40570;BME280;26270;34.428;-119.710;2023-02-02T04:46:19;101957.96;;;12.41;64.90
40570;BME280;26270;34.428;-119.710;2023-02-02T04:48:48;101961.16;;;12.28;65.18
40570;BME280;26270;34.428;-119.710;2023-02-02T04:51:15;101965.22;;;12.06;65.31
40570;BME280;26270;34.428;-119.710;2023-02-02T04:53:44;101964.53;;;12.47;63.57
40570;BME280;26270;34.428;-119.710;2023-02-02T04:56:13;101965.33;;;12.40;64.24
40570;BME280;26270;34.428;-119.710;2023-02-02T04:58:43;101967.04;;;12.19;65.40
40570;BME280;26270;34.428;-119.710;2023-02-02T05:03:20;101975.20;;;11.79;65.38
40570;BME280;26270;34.428;-119.710;2023-02-02T05:05:47;101981.46;;;11.96;65.18
40570;BME280;26270;34.428;-119.710;2023-02-02T05:08:15;101979.22;;;12.07;64.16
40570;BME280;26270;34.428;-119.710;2023-02-02T05:10:43;101977.09;;;11.78;65.69
40570;BME280;26270;34.428;-119.710;2023-02-02T05:13:11;101976.01;;;11.71;65.58
40570;BME280;26270;34.428;-119.710;2023-02-02T05:15:39;101975.65;;;11.57;66.80
40570;BME280;26270;34.428;-119.710;2023-02-02T05:18:07;101970.73;;;11.64;66.42
40570;BME280;26270;34.428;-119.710;2023-02-02T05:20:35;101969.29;;;11.65;66.28
40570;BME280;26270;34.428;-119.710;2023-02-02T05:23:03;101970.17;;;11.88;65.53
40570;BME280;26270;34.428;-119.710;2023-02-02T05:25:31;101969.19;;;11.92;66.14
40570;BME280;26270;34.428;-119.710;2023-02-02T05:27:59;101964.37;;;11.70;66.63
40570;BME280;26270;34.428;-119.710;2023-02-02T05:30:27;101959.20;;;11.51;67.54
40570;BME280;26270;34.428;-119.710;2023-02-02T05:32:55;101959.44;;;11.67;67.00
40570;BME280;26270;34.428;-119.710;2023-02-02T05:35:22;101960.47;;;11.84;67.38
40570;BME280;26270;34.428;-119.710;2023-02-02T05:37:50;101958.61;;;11.77;66.35
40570;BME280;26270;34.428;-119.710;2023-02-02T05:40:18;101953.99;;;11.78;65.82
40570;BME280;26270;34.428;-119.710;2023-02-02T05:42:47;101953.15;;;11.82;66.17
40570;BME280;26270;34.428;-119.710;2023-02-02T05:45:15;101951.42;;;11.81;66.30
40570;BME280;26270;34.428;-119.710;2023-02-02T05:47:44;101953.97;;;11.73;66.54
40570;BME280;26270;34.428;-119.710;2023-02-02T05:50:12;101952.69;;;11.77;66.33
40570;BME280;26270;34.428;-119.710;2023-02-02T05:52:40;101949.58;;;11.68;66.32
40570;BME280;26270;34.428;-119.710;2023-02-02T05:55:10;101945.68;;;11.76;65.87
40570;BME280;26270;34.428;-119.710;2023-02-02T05:57:38;101946.18;;;11.92;66.00
40570;BME280;26270;34.428;-119.710;2023-02-02T06:00:07;101945.86;;;11.73;65.58
40570;BME280;26270;34.428;-119.710;2023-02-02T06:02:35;101947.90;;;11.84;64.94
40570;BME280;26270;34.428;-119.710;2023-02-02T06:05:04;101949.15;;;12.03;64.62
40570;BME280;26270;34.428;-119.710;2023-02-02T06:07:31;101947.83;;;11.74;65.12
40570;BME280;26270;34.428;-119.710;2023-02-02T06:09:59;101950.97;;;11.65;65.07
40570;BME280;26270;34.428;-119.710;2023-02-02T06:12:27;101953.55;;;11.73;63.26
40570;BME280;26270;34.428;-119.710;2023-02-02T06:14:55;101956.23;;;11.50;62.79
40570;BME280;26270;34.428;-119.710;2023-02-02T06:17:22;101959.04;;;11.31;62.41
40570;BME280;26270;34.428;-119.710;2023-02-02T06:19:50;101961.71;;;11.46;61.86
40570;BME280;26270;34.428;-119.710;2023-02-02T06:22:18;101964.99;;;11.14;62.03
40570;BME280;26270;34.428;-119.710;2023-02-02T06:24:46;101973.38;;;11.19;62.49
40570;BME280;26270;34.428;-119.710;2023-02-02T06:27:14;101983.12;;;10.99;63.10
40570;BME280;26270;34.428;-119.710;2023-02-02T06:29:42;101987.14;;;11.08;61.60
40570;BME280;26270;34.428;-119.710;2023-02-02T06:32:09;101983.89;;;11.37;59.37
40570;BME280;26270;34.428;-119.710;2023-02-02T06:34:37;101979.65;;;10.83;60.21
40570;BME280;26270;34.428;-119.710;2023-02-02T06:37:05;101980.20;;;11.07;59.99
40570;BME280;26270;34.428;-119.710;2023-02-02T06:39:33;101986.06;;;10.48;61.24
40570;BME280;26270;34.428;-119.710;2023-02-02T06:42:01;101988.36;;;10.84;61.30
40570;BME280;26270;34.428;-119.710;2023-02-02T06:44:30;101991.03;;;11.12;60.96
40570;BME280;26270;34.428;-119.710;2023-02-02T06:46:57;101991.78;;;11.19;60.23
40570;BME280;26270;34.428;-119.710;2023-02-02T06:49:25;101992.76;;;11.14;60.91
40570;BME280;26270;34.428;-119.710;2023-02-02T06:51:53;101996.88;;;11.15;59.75
40570;BME280;26270;34.428;-119.710;2023-02-02T06:54:20;101999.06;;;11.10;60.66
40570;BME280;26270;34.428;-119.710;2023-02-02T06:56:48;101999.54;;;11.15;60.99
40570;BME280;26270;34.428;-119.710;2023-02-02T06:59:16;101997.57;;;11.15;61.13
40570;BME280;26270;34.428;-119.710;2023-02-02T07:01:44;102000.55;;;11.14;60.97
40570;BME280;26270;34.428;-119.710;2023-02-02T07:04:12;102005.99;;;11.28;60.89
40570;BME280;26270;34.428;-119.710;2023-02-02T07:06:39;102003.08;;;11.27;60.05
40570;BME280;26270;34.428;-119.710;2023-02-02T07:09:07;102001.52;;;11.01;59.32
40570;BME280;26270;34.428;-119.710;2023-02-02T07:11:35;102001.79;;;10.96;59.53
40570;BME280;26270;34.428;-119.710;2023-02-02T07:14:03;102002.51;;;11.22;58.56
40570;BME280;26270;34.428;-119.710;2023-02-02T07:16:31;102002.01;;;10.94;58.60
40570;BME280;26270;34.428;-119.710;2023-02-02T07:19:00;102012.30;;;11.03;59.14
40570;BME280;26270;34.428;-119.710;2023-02-02T07:21:28;102011.78;;;11.00;59.44
40570;BME280;26270;34.428;-119.710;2023-02-02T07:23:57;102011.40;;;10.99;59.53
40570;BME280;26270;34.428;-119.710;2023-02-02T07:26:24;102010.67;;;10.88;59.58
40570;BME280;26270;34.428;-119.710;2023-02-02T07:28:52;102004.59;;;10.50;59.24
40570;BME280;26270;34.428;-119.710;2023-02-02T07:31:22;102005.21;;;10.56;59.58
40570;BME280;26270;34.428;-119.710;2023-02-02T07:33:51;102005.00;;;10.74;59.51
40570;BME280;26270;34.428;-119.710;2023-02-02T07:36:22;102000.00;;;10.54;58.94
40570;BME280;26270;34.428;-119.710;2023-02-02T07:38:51;101996.97;;;10.82;58.32
40570;BME280;26270;34.428;-119.710;2023-02-02T07:41:20;101997.34;;;10.44;58.50
40570;BME280;26270;34.428;-119.710;2023-02-02T07:43:49;102001.02;;;10.61;59.05
40570;BME280;26270;34.428;-119.710;2023-02-02T07:46:18;101996.59;;;10.76;58.34
40570;BME280;26270;34.428;-119.710;2023-02-02T07:48:46;101996.93;;;10.27;58.26
40570;BME280;26270;34.428;-119.710;2023-02-02T07:51:16;101996.48;;;10.52;58.21
40570;BME280;26270;34.428;-119.710;2023-02-02T07:53:45;101997.82;;;10.64;58.46
40570;BME280;26270;34.428;-119.710;2023-02-02T07:56:14;101996.56;;;10.80;58.08
40570;BME280;26270;34.428;-119.710;2023-02-02T07:58:43;101996.33;;;10.57;58.69
40570;BME280;26270;34.428;-119.710;2023-02-02T08:01:13;101997.32;;;10.74;58.87
40570;BME280;26270;34.428;-119.710;2023-02-02T08:03:42;101996.22;;;10.78;58.73
40570;BME280;26270;34.428;-119.710;2023-02-02T08:06:14;101996.67;;;10.25;58.21
40570;BME280;26270;34.428;-119.710;2023-02-02T08:08:42;101993.63;;;10.09;58.69
40570;BME280;26270;34.428;-119.710;2023-02-02T08:11:11;102000.17;;;10.08;58.68
40570;BME280;26270;34.428;-119.710;2023-02-02T08:13:41;102007.80;;;10.45;59.13
40570;BME280;26270;34.428;-119.710;2023-02-02T08:16:10;102011.08;;;10.07;59.17
40570;BME280;26270;34.428;-119.710;2023-02-02T08:18:39;102018.79;;;10.36;59.57
40570;BME280;26270;34.428;-119.710;2023-02-02T08:21:07;102020.71;;;10.22;59.52
40570;BME280;26270;34.428;-119.710;2023-02-02T08:23:37;102017.77;;;10.39;59.62
40570;BME280;26270;34.428;-119.710;2023-02-02T08:26:08;102014.92;;;10.08;60.63
40570;BME280;26270;34.428;-119.710;2023-02-02T08:28:37;102012.45;;;9.75;62.47
40570;BME280;26270;34.428;-119.710;2023-02-02T08:31:08;102014.56;;;10.12;62.68
40570;BME280;26270;34.428;-119.710;2023-02-02T08:33:36;102014.79;;;10.31;62.60
40570;BME280;26270;34.428;-119.710;2023-02-02T08:36:06;102017.91;;;10.39;62.32
40570;BME280;26270;34.428;-119.710;2023-02-02T08:38:34;102017.73;;;10.28;62.60
40570;BME280;26270;34.428;-119.710;2023-02-02T08:41:06;102018.72;;;10.29;62.52
40570;BME280;26270;34.428;-119.710;2023-02-02T08:43:35;102019.42;;;10.26;62.95
40570;BME280;26270;34.428;-119.710;2023-02-02T08:46:04;102022.05;;;10.33;62.68
40570;BME280;26270;34.428;-119.710;2023-02-02T08:48:33;102022.87;;;10.28;62.75
40570;BME280;26270;34.428;-119.710;2023-02-02T08:51:02;102024.70;;;10.13;63.48
40570;BME280;26270;34.428;-119.710;2023-02-02T08:53:31;102025.91;;;10.24;63.59
40570;BME280;26270;34.428;-119.710;2023-02-02T08:56:00;102021.15;;;10.36;63.63
40570;BME280;26270;34.428;-119.710;2023-02-02T08:58:28;102012.17;;;10.56;62.83
40570;BME280;26270;34.428;-119.710;2023-02-02T09:01:03;102003.11;;;10.43;63.77
40570;BME280;26270;34.428;-119.710;2023-02-02T09:03:32;101994.42;;;10.44;63.87
40570;BME280;26270;34.428;-119.710;2023-02-02T09:06:04;101989.66;;;10.32;63.84
40570;BME280;26270;34.428;-119.710;2023-02-02T09:08:32;101992.64;;;10.29;64.41
40570;BME280;26270;34.428;-119.710;2023-02-02T09:11:05;102000.23;;;9.99;64.91
40570;BME280;26270;34.428;-119.710;2023-02-02T09:13:35;102005.03;;;10.18;64.93
40570;BME280;26270;34.428;-119.710;2023-02-02T09:16:05;101999.80;;;10.02;64.75
40570;BME280;26270;34.428;-119.710;2023-02-02T09:18:34;101992.91;;;10.07;65.04
40570;BME280;26270;34.428;-119.710;2023-02-02T09:21:03;101994.37;;;10.19;65.26
40570;BME280;26270;34.428;-119.710;2023-02-02T09:23:32;102000.80;;;10.10;64.74
40570;BME280;26270;34.428;-119.710;2023-02-02T09:26:09;101997.08;;;10.10;64.44
40570;BME280;26270;34.428;-119.710;2023-02-02T09:28:37;101996.00;;;9.88;63.85
40570;BME280;26270;34.428;-119.710;2023-02-02T09:31:07;101996.95;;;10.01;64.02
40570;BME280;26270;34.428;-119.710;2023-02-02T09:33:35;101999.57;;;9.99;63.72
40570;BME280;26270;34.428;-119.710;2023-02-02T09:36:06;101999.30;;;9.99;63.85
40570;BME280;26270;34.428;-119.710;2023-02-02T09:38:35;102000.50;;;9.84;64.24
40570;BME280;26270;34.428;-119.710;2023-02-02T09:41:25;101996.76;;;9.93;64.25
40570;BME280;26270;34.428;-119.710;2023-02-02T09:44:03;101997.43;;;9.86;64.89
40570;BME280;26270;34.428;-119.710;2023-02-02T09:46:44;101997.54;;;9.89;64.84
40570;BME280;26270;34.428;-119.710;2023-02-02T09:49:18;101995.94;;;9.72;64.46
40570;BME280;26270;34.428;-119.710;2023-02-02T09:51:55;101996.53;;;9.72;64.73
40570;BME280;26270;34.428;-119.710;2023-02-02T09:54:27;101996.41;;;9.77;64.25
40570;BME280;26270;34.428;-119.710;2023-02-02T09:56:58;102004.24;;;9.72;63.93
40570;BME280;26270;34.428;-119.710;2023-02-02T09:59:32;102001.70;;;9.54;64.00
40570;BME280;26270;34.428;-119.710;2023-02-02T10:02:05;102000.78;;;9.62;64.12
40570;BME280;26270;34.428;-119.710;2023-02-02T10:04:40;102000.23;;;9.74;64.07
40570;BME280;26270;34.428;-119.710;2023-02-02T10:07:14;101991.70;;;9.57;64.11
40570;BME280;26270;34.428;-119.710;2023-02-02T10:09:47;101993.41;;;9.64;64.00
40570;BME280;26270;34.428;-119.710;2023-02-02T10:12:25;101998.95;;;9.74;63.70
40570;BME280;26270;34.428;-119.710;2023-02-02T10:14:59;102000.76;;;9.63;62.90
40570;BME280;26270;34.428;-119.710;2023-02-02T10:17:37;101999.03;;;9.60;63.33
40570;BME280;26270;34.428;-119.710;2023-02-02T10:20:23;101998.86;;;9.68;63.04
40570;BME280;26270;34.428;-119.710;2023-02-02T10:22:57;101994.93;;;9.54;62.45
40570;BME280;26270;34.428;-119.710;2023-02-02T10:25:32;101994.72;;;9.72;61.49
40570;BME280;26270;34.428;-119.710;2023-02-02T10:28:08;101989.19;;;9.77;60.01
40570;BME280;26270;34.428;-119.710;2023-02-02T10:30:44;101986.76;;;9.84;59.67
40570;BME280;26270;34.428;-119.710;2023-02-02T10:33:22;101988.30;;;9.73;59.30
40570;BME280;26270;34.428;-119.710;2023-02-02T10:36:00;101988.80;;;9.85;59.77
40570;BME280;26270;34.428;-119.710;2023-02-02T10:38:37;101992.70;;;9.88;58.98
40570;BME280;26270;34.428;-119.710;2023-02-02T10:41:15;101987.65;;;9.28;57.25
40570;BME280;26270;34.428;-119.710;2023-02-02T10:43:58;101984.39;;;9.80;58.29
40570;BME280;26270;34.428;-119.710;2023-02-02T10:46:33;101987.56;;;9.78;57.90
40570;BME280;26270;34.428;-119.710;2023-02-02T10:49:20;101984.38;;;9.81;56.21
40570;BME280;26270;34.428;-119.710;2023-02-02T10:51:53;101982.87;;;9.60;56.06
40570;BME280;26270;34.428;-119.710;2023-02-02T10:54:41;101989.25;;;9.87;56.37
40570;BME280;26270;34.428;-119.710;2023-02-02T10:57:15;101984.28;;;9.91;56.38
40570;BME280;26270;34.428;-119.710;2023-02-02T10:59:55;101986.73;;;9.93;56.81
40570;BME280;26270;34.428;-119.710;2023-02-02T11:02:25;101989.67;;;9.71;57.24
40570;BME280;26270;34.428;-119.710;2023-02-02T11:04:54;101984.53;;;9.63;56.19
40570;BME280;26270;34.428;-119.710;2023-02-02T11:07:22;101993.80;;;9.77;57.50
40570;BME280;26270;34.428;-119.710;2023-02-02T11:09:50;101988.83;;;9.86;56.54
40570;BME280;26270;34.428;-119.710;2023-02-02T11:12:25;101983.78;;;9.71;55.47
40570;BME280;26270;34.428;-119.710;2023-02-02T11:14:59;101988.13;;;9.56;57.34
40570;BME280;26270;34.428;-119.710;2023-02-02T11:17:28;101995.91;;;9.63;56.31
40570;BME280;26270;34.428;-119.710;2023-02-02T11:19:57;101999.32;;;9.56;57.31
40570;BME280;26270;34.428;-119.710;2023-02-02T11:22:30;101993.85;;;9.75;56.42
40570;BME280;26270;34.428;-119.710;2023-02-02T11:25:02;101999.67;;;9.94;56.60
40570;BME280;26270;34.428;-119.710;2023-02-02T11:27:32;102004.77;;;9.87;55.25
40570;BME280;26270;34.428;-119.710;2023-02-02T11:30:18;102019.57;;;9.54;56.89
40570;BME280;26270;34.428;-119.710;2023-02-02T11:32:48;102021.81;;;9.48;57.60
40570;BME280;26270;34.428;-119.710;2023-02-02T11:35:19;102021.85;;;9.76;55.34
40570;BME280;26270;34.428;-119.710;2023-02-02T11:37:59;102022.59;;;9.66;55.45
40570;BME280;26270;34.428;-119.710;2023-02-02T11:40:36;102021.37;;;9.69;55.60
40570;BME280;26270;34.428;-119.710;2023-02-02T11:43:15;102032.45;;;9.65;55.93
40570;BME280;26270;34.428;-119.710;2023-02-02T11:45:45;102031.77;;;9.62;56.03
40570;BME280;26270;34.428;-119.710;2023-02-02T11:48:17;102031.16;;;9.54;55.73
40570;BME280;26270;34.428;-119.710;2023-02-02T11:50:48;102035.66;;;9.50;55.78
40570;BME280;26270;34.428;-119.710;2023-02-02T11:53:26;102044.09;;;9.17;56.83
40570;BME280;26270;34.428;-119.710;2023-02-02T11:55:56;102043.48;;;9.50;56.84
40570;BME280;26270;34.428;-119.710;2023-02-02T11:58:26;102046.93;;;9.39;55.80
40570;BME280;26270;34.428;-119.710;2023-02-02T12:00:59;102045.72;;;9.28;56.24
40570;BME280;26270;34.428;-119.710;2023-02-02T12:03:31;102046.88;;;9.39;56.64
40570;BME280;26270;34.428;-119.710;2023-02-02T12:06:00;102055.87;;;9.09;57.31
40570;BME280;26270;34.428;-119.710;2023-02-02T12:08:43;102051.79;;;9.07;56.99
40570;BME280;26270;34.428;-119.710;2023-02-02T12:11:22;102054.96;;;9.30;56.44
40570;BME280;26270;34.428;-119.710;2023-02-02T12:14:03;102061.65;;;9.01;56.45
40570;BME280;26270;34.428;-119.710;2023-02-02T12:16:42;102064.56;;;9.04;56.61
40570;BME280;26270;34.428;-119.710;2023-02-02T12:19:27;102068.29;;;9.11;54.82
40570;BME280;26270;34.428;-119.710;2023-02-02T12:22:08;102067.22;;;8.42;57.59
40570;BME280;26270;34.428;-119.710;2023-02-02T12:24:49;102070.63;;;8.54;57.03
40570;BME280;26270;34.428;-119.710;2023-02-02T12:27:26;102071.29;;;8.97;57.39
40570;BME280;26270;34.428;-119.710;2023-02-02T12:30:13;102067.66;;;8.83;55.92
40570;BME280;26270;34.428;-119.710;2023-02-02T12:32:59;102070.22;;;9.16;54.70
40570;BME280;26270;34.428;-119.710;2023-02-02T12:35:47;102072.95;;;9.15;55.56
40570;BME280;26270;34.428;-119.710;2023-02-02T12:38:23;102066.35;;;9.15;56.03
40570;BME280;26270;34.428;-119.710;2023-02-02T12:41:13;102069.88;;;9.21;56.73
40570;BME280;26270;34.428;-119.710;2023-02-02T12:43:46;102064.65;;;8.67;56.53
40570;BME280;26270;34.428;-119.710;2023-02-02T12:46:24;102069.98;;;8.98;56.00